Time;durP1;ratioP1;P1;durP2;ratioP2;P2;SDS_P1;SDS_P2;PMS_P1;PMS_P2;Temp;Humidity;BMP_temperature;BMP_pressure;BME280_temperature;BME280_humidity;BME280_pressure;Samples;Min_cycle;Max_cycle;Signal;HPM_P1;HPM_P2
2021/05/10 00:02:24;;;;;;;4.70;4.50;;;;;;;20.12;44.01;99714.25;4423224;32;20092;-71
2021/05/10 00:04:49;;;;;;;4.70;4.50;;;;;;;20.06;45.32;99717.56;4418950;32;20593;-71
2021/05/10 00:07:14;;;;;;;4.70;4.50;;;;;;;20.01;45.85;99728.72;4420193;32;20060;-71
2021/05/10 00:09:40;;;;;;;4.80;4.60;;;;;;;19.96;45.27;99719.56;4418928;32;20144;-71
2021/05/10 00:12:05;;;;;;;4.47;4.28;;;;;;;19.91;44.77;99717.41;4422896;32;20248;-71
2021/05/10 00:14:44;;;;;;;4.70;4.50;;;;;;;19.86;46.37;99723.19;4416841;32;20068;-71
2021/05/10 00:17:10;;;;;;;4.70;4.50;;;;;;;19.77;46.73;99716.22;4434180;32;20912;-71
2021/05/10 00:19:35;;;;;;;4.70;4.50;;;;;;;19.70;47.91;99723.16;4413932;32;20096;-71
2021/05/10 00:22:01;;;;;;;4.78;4.57;;;;;;;19.64;47.38;99713.97;4416956;32;20126;-71
2021/05/10 00:24:26;;;;;;;4.70;4.50;;;;;;;19.60;48.24;99731.28;4431850;32;20129;-71
2021/05/10 00:26:52;;;;;;;4.60;4.40;;;;;;;19.58;47.58;99722.62;4417264;32;20129;-71
2021/05/10 00:29:18;;;;;;;4.80;4.60;;;;;;;19.55;47.66;99732.78;4431666;32;20072;-71
2021/05/10 00:31:45;;;;;;;4.80;4.60;;;;;;;19.51;46.76;99722.44;4420345;32;20744;-71
2021/05/10 00:34:10;;;;;;;4.82;4.62;;;;;;;19.49;47.43;99719.09;4423331;32;20057;-71
2021/05/10 00:36:35;;;;;;;4.80;4.60;;;;;;;19.48;47.55;99709.47;4432956;32;20085;-71
2021/05/10 00:39:01;;;;;;;4.95;4.75;;;;;;;19.49;46.65;99708.47;4435779;32;20068;-72
2021/05/10 00:41:26;;;;;;;4.50;4.30;;;;;;;19.51;46.51;99722.44;4435795;32;20138;-72
2021/05/10 00:43:51;;;;;;;4.80;4.55;;;;;;;19.51;46.83;99721.63;4420018;32;20241;-72
2021/05/10 00:46:17;;;;;;;4.62;4.43;;;;;;;19.46;46.73;99713.28;4416169;32;20087;-72
2021/05/10 00:48:42;;;;;;;4.62;4.43;;;;;;;19.50;46.17;99718.13;4433319;32;20083;-72
2021/05/10 00:51:07;;;;;;;4.70;4.50;;;;;;;19.50;45.47;99715.47;4434637;32;20625;-72
2021/05/10 00:53:33;;;;;;;4.65;4.45;;;;;;;19.54;45.90;99705.31;4416889;32;20078;-72
2021/05/10 00:55:58;;;;;;;4.87;4.68;;;;;;;19.63;45.10;99699.03;4430873;32;20080;-71
2021/05/10 00:58:23;;;;;;;4.70;4.50;;;;;;;18.68;44.45;99537.00;4418660;32;20064;-72
2021/05/10 01:00:49;;;;;;;4.70;4.50;;;;;;;19.71;43.96;99688.41;4433856;32;20596;-72
2021/05/10 01:03:14;;;;;;;4.70;4.50;;;;;;;19.79;43.46;99690.25;4416630;32;20076;-72
2021/05/10 01:05:40;;;;;;;4.70;4.50;;;;;;;19.81;43.51;99685.59;4420281;32;20068;-72
2021/05/10 01:08:06;;;;;;;4.85;4.55;;;;;;;19.87;43.86;99681.47;4419652;32;20509;-71
2021/05/10 01:10:31;;;;;;;4.60;4.40;;;;;;;19.88;43.68;99686.59;4419396;32;20084;-72
2021/05/10 01:12:56;;;;;;;4.60;4.40;;;;;;;19.89;42.94;99674.97;4421415;32;20835;-72
2021/05/10 01:15:23;;;;;;;4.75;4.50;;;;;;;19.89;43.18;99676.78;4437605;32;20080;-71
2021/05/10 01:17:51;;;;;;;5.18;4.90;;;;;;;19.89;42.88;99674.13;4420868;32;20581;-72
2021/05/10 01:20:17;;;;;;;5.10;4.80;;;;;;;19.87;43.88;99679.63;4437867;32;20191;-72
2021/05/10 01:22:43;;;;;;;4.80;4.60;;;;;;;19.81;44.27;99690.09;4419596;32;20153;-72
2021/05/10 01:25:11;;;;;;;6.22;5.93;;;;;;;19.78;44.32;99683.25;4417626;32;20080;-72
2021/05/10 01:27:37;;;;;;;4.80;4.60;;;;;;;19.78;44.09;99696.56;4418794;32;20087;-71
2021/05/10 01:30:07;;;;;;;4.65;4.45;;;;;;;19.78;44.04;99691.25;4419733;32;20510;-71
2021/05/10 01:32:32;;;;;;;4.57;4.37;;;;;;;20.03;42.12;99693.94;4416683;32;20283;-70
2021/05/10 01:34:58;;;;;;;4.60;4.40;;;;;;;20.01;42.16;99719.91;4420678;32;20974;-72
2021/05/10 01:37:23;;;;;;;4.70;4.50;;;;;;;20.25;41.38;99695.94;4417783;32;20566;-71
2021/05/10 01:39:48;;;;;;;4.68;4.47;;;;;;;20.47;40.06;99701.59;4432822;32;20094;-71
2021/05/10 01:42:14;;;;;;;4.70;4.50;;;;;;;20.62;40.01;99697.25;4420764;32;20079;-73
2021/05/10 01:44:39;;;;;;;4.65;4.45;;;;;;;20.69;39.66;99674.25;4418839;32;20061;-71
2021/05/10 01:47:04;;;;;;;4.60;4.40;;;;;;;20.74;38.94;99691.56;4419014;32;20533;-72
2021/05/10 01:49:30;;;;;;;4.60;4.40;;;;;;;20.72;39.95;99697.88;4416052;32;20067;-72
2021/05/10 01:51:59;;;;;;;4.50;4.30;;;;;;;20.77;39.11;99685.88;4416230;32;20064;-72
2021/05/10 01:54:24;;;;;;;4.82;4.62;;;;;;;20.78;39.42;99666.22;4419659;32;20064;-72
2021/05/10 01:56:50;;;;;;;4.60;4.40;;;;;;;20.75;40.32;99678.06;4417912;32;22007;-72
2021/05/10 01:59:15;;;;;;;4.65;4.45;;;;;;;20.68;40.47;99671.75;4420522;32;20082;-72
2021/05/10 02:01:40;;;;;;;4.65;4.45;;;;;;;20.73;40.36;99674.75;4419876;32;20099;-73
2021/05/10 02:04:06;;;;;;;4.70;4.50;;;;;;;20.67;39.61;99660.25;4432668;32;20068;-72
2021/05/10 02:06:31;;;;;;;4.55;4.35;;;;;;;20.65;39.98;99653.44;4416170;32;20763;-72
2021/05/10 02:08:56;;;;;;;4.90;4.70;;;;;;;20.61;40.80;99652.94;4417096;32;20087;-72
2021/05/10 02:11:22;;;;;;;4.50;4.30;;;;;;;20.60;40.20;99648.59;4423309;32;20072;-72
2021/05/10 02:13:48;;;;;;;4.47;4.28;;;;;;;20.56;40.68;99655.25;4433298;32;20064;-72
2021/05/10 02:16:13;;;;;;;4.85;4.65;;;;;;;20.49;41.09;99657.78;4418504;32;20129;-72
2021/05/10 02:18:38;;;;;;;4.50;4.30;;;;;;;20.44;41.71;99656.59;4434625;32;20548;-72
2021/05/10 02:21:04;;;;;;;4.47;4.28;;;;;;;20.43;41.24;99670.94;4420526;32;20060;-72
2021/05/10 02:23:31;;;;;;;4.50;4.30;;;;;;;20.41;42.05;99662.28;4420211;32;20698;-72
2021/05/10 02:25:58;;;;;;;4.62;4.43;;;;;;;20.33;41.46;99657.81;4417054;32;20067;-72
2021/05/10 02:28:25;;;;;;;4.53;4.32;;;;;;;20.27;42.25;99653.97;4414220;32;20174;-72
2021/05/10 02:30:51;;;;;;;4.72;4.53;;;;;;;20.22;41.44;99664.28;4418509;32;20089;-72
2021/05/10 02:33:18;;;;;;;4.55;4.35;;;;;;;20.19;42.36;99661.97;4419357;32;20860;-72
2021/05/10 02:35:44;;;;;;;4.70;4.50;;;;;;;20.12;42.25;99651.13;4416134;32;20111;-72
2021/05/10 02:38:10;;;;;;;4.70;4.50;;;;;;;20.06;42.57;99651.81;4419533;32;20072;-72
2021/05/10 02:40:36;;;;;;;4.50;4.30;;;;;;;19.98;42.91;99641.16;4419205;32;20892;-72
2021/05/10 02:43:02;;;;;;;4.57;4.37;;;;;;;19.91;42.33;99635.69;4430829;32;20064;-72
2021/05/10 02:45:27;;;;;;;4.55;4.35;;;;;;;19.86;42.86;99637.19;4430629;32;20064;-72
2021/05/10 02:47:53;;;;;;;4.80;4.60;;;;;;;19.78;42.96;99643.31;4417129;32;20072;-72
2021/05/10 02:50:20;;;;;;;4.60;4.40;;;;;;;19.67;43.33;99630.31;4418398;32;20068;-72
2021/05/10 02:52:46;;;;;;;4.50;4.30;;;;;;;19.63;43.43;99639.62;4421182;32;20498;-72
2021/05/10 02:55:12;;;;;;;4.50;4.30;;;;;;;19.63;44.26;99635.13;4420047;32;20072;-72
2021/05/10 02:57:37;;;;;;;4.80;4.60;;;;;;;19.56;44.55;99649.25;4416364;32;20075;-72
2021/05/10 03:00:10;;;;;;;4.50;4.30;;;;;;;19.47;44.83;99651.91;4415783;32;20076;-72
2021/05/10 03:02:35;;;;;;;;;;;;;;;19.42;44.69;99648.06;4428943;32;20083;-71
2021/05/10 03:05:00;;;;;;;4.70;4.50;;;;;;;19.36;45.12;99649.53;4431845;32;20055;-70
2021/05/10 03:07:26;;;;;;;4.43;4.22;;;;;;;19.27;45.58;99639.91;4418872;32;20194;-71
2021/05/10 03:09:51;;;;;;;4.70;4.50;;;;;;;19.16;45.72;99637.53;4418587;32;20953;-70
2021/05/10 03:12:16;;;;;;;5.28;4.90;;;;;;;19.08;46.25;99644.50;4428051;32;20249;-71
2021/05/10 03:14:42;;;;;;;4.62;4.43;;;;;;;18.98;46.27;99646.44;4415040;32;20068;-71
2021/05/10 03:17:07;;;;;;;4.60;4.40;;;;;;;18.88;46.24;99645.72;4431646;32;20091;-70
2021/05/10 03:19:32;;;;;;;4.60;4.40;;;;;;;18.78;47.12;99640.50;4420182;32;20566;-70
2021/05/10 03:21:58;;;;;;;4.53;4.32;;;;;;;18.73;46.77;99643.66;4433353;32;20145;-69
2021/05/10 03:24:23;;;;;;;4.57;4.37;;;;;;;18.72;46.49;99646.44;4414645;32;20536;-71
2021/05/10 03:26:48;;;;;;;4.53;4.32;;;;;;;18.72;46.57;99643.78;4415479;32;20076;-70
2021/05/10 03:29:14;;;;;;;4.60;4.40;;;;;;;18.71;46.98;99652.78;4428372;32;20496;-70
2021/05/10 03:31:39;;;;;;;4.80;4.60;;;;;;;18.75;47.80;99659.44;4419395;32;20083;-70
2021/05/10 03:34:04;;;;;;;4.53;4.32;;;;;;;18.72;46.98;99660.59;4416036;32;20068;-69
2021/05/10 03:36:30;;;;;;;5.57;5.28;;;;;;;18.69;47.82;99660.06;4429488;32;20566;-69
2021/05/10 03:38:55;;;;;;;4.78;4.57;;;;;;;18.69;48.07;99668.88;4422889;32;20090;-70
2021/05/10 03:41:23;;;;;;;4.70;4.50;;;;;;;18.74;46.75;99676.38;4432529;32;20551;-70
2021/05/10 03:43:49;;;;;;;4.40;4.20;;;;;;;18.78;46.59;99671.56;4419215;32;20690;-70
2021/05/10 03:46:15;;;;;;;4.68;4.47;;;;;;;18.88;46.14;99667.00;4416789;32;20115;-70
2021/05/10 03:48:40;;;;;;;4.40;4.20;;;;;;;18.96;45.57;99677.66;4416921;32;20071;-69
2021/05/10 03:51:06;;;;;;;4.60;4.40;;;;;;;19.06;45.74;99685.53;4432841;32;20728;-70
2021/05/10 03:53:31;;;;;;;4.50;4.30;;;;;;;19.21;45.31;99673.28;4414980;32;20060;-71
2021/05/10 03:55:56;;;;;;;4.75;4.55;;;;;;;19.29;45.13;99683.97;4433654;32;20080;-70
2021/05/10 03:58:22;;;;;;;4.70;4.50;;;;;;;19.39;44.05;99683.81;4430635;32;20869;-70
2021/05/10 04:00:47;;;;;;;4.53;4.32;;;;;;;19.49;44.35;99681.03;4430201;32;20087;-69
2021/05/10 04:03:14;;;;;;;4.50;4.30;;;;;;;19.55;45.39;99679.56;4413979;32;20076;-69
2021/05/10 04:13:38;;;;;;;4.47;4.28;;;;;;;19.44;45.89;99668.19;4428996;32;20072;-69
2021/05/10 04:16:04;;;;;;;4.47;4.28;;;;;;;19.43;45.72;99663.88;4420195;32;20176;-70
2021/05/10 04:18:29;;;;;;;4.60;4.40;;;;;;;19.46;46.61;99676.03;4418255;32;20083;-70
2021/05/10 04:20:55;;;;;;;4.60;4.40;;;;;;;19.35;45.51;99661.19;4417366;32;20913;-70
2021/05/10 04:23:20;;;;;;;4.62;4.43;;;;;;;19.50;46.26;99704.81;4413537;32;20141;-78
2021/05/10 04:25:46;;;;;;;4.60;4.40;;;;;;;19.55;45.83;99707.00;4431197;32;20134;-70
2021/05/10 04:28:12;;;;;;;6.20;5.90;;;;;;;19.46;44.68;99690.16;4419738;32;20107;-69
2021/05/10 04:30:37;;;;;;;4.60;4.40;;;;;;;19.64;45.20;99705.16;4418195;32;20920;-69
2021/05/10 04:33:03;;;;;;;4.70;4.50;;;;;;;19.66;44.62;99711.16;4417605;32;20186;-69
2021/05/10 04:35:28;;;;;;;4.47;4.28;;;;;;;19.57;45.64;99701.50;4433821;32;20141;-69
2021/05/10 04:37:54;;;;;;;4.50;4.30;;;;;;;19.61;45.44;99716.97;4429594;32;20064;-69
2021/05/10 04:40:20;;;;;;;4.62;4.43;;;;;;;19.59;45.54;99718.97;4417525;32;20330;-68
2021/05/10 04:42:47;;;;;;;4.40;4.20;;;;;;;19.55;45.47;99716.81;4416650;32;20130;-69
2021/05/10 04:45:13;;;;;;;4.45;4.25;;;;;;;19.46;46.17;99722.06;4418310;32;20083;-69
2021/05/10 04:47:38;;;;;;;4.32;4.12;;;;;;;19.49;45.80;99719.09;4416613;32;20549;-69
2021/05/10 04:50:09;;;;;;;4.93;4.65;;;;;;;19.44;45.71;99731.22;4419009;32;20076;-68
2021/05/10 04:52:34;;;;;;;4.50;4.30;;;;;;;19.38;46.85;99734.53;4419408;32;20575;-69
2021/05/10 04:55:00;;;;;;;4.37;4.18;;;;;;;19.34;46.43;99731.34;4430131;32;20090;-69
2021/05/10 04:57:25;;;;;;;4.40;4.20;;;;;;;19.38;47.15;99748.66;4416628;32;20075;-69
2021/05/10 04:59:50;;;;;;;4.30;4.10;;;;;;;19.42;46.12;99749.19;4420476;32;20084;-69
2021/05/10 05:02:16;;;;;;;4.65;4.32;;;;;;;19.38;47.18;99748.66;4414107;32;20141;-69
2021/05/10 05:04:41;;;;;;;4.82;4.62;;;;;;;19.37;47.18;99756.81;4404062;32;20067;-69
2021/05/10 05:07:07;;;;;;;4.57;4.37;;;;;;;19.38;46.76;99753.97;4405492;32;20072;-69
2021/05/10 05:09:32;;;;;;;4.62;4.43;;;;;;;19.35;46.41;99762.31;4427818;32;20992;-69
2021/05/10 05:11:57;;;;;;;4.68;4.47;;;;;;;19.35;47.19;99772.94;4417974;32;20073;-70
2021/05/10 05:14:23;;;;;;;4.40;4.20;;;;;;;19.41;46.21;99782.94;4430194;32;20075;-68
2021/05/10 05:16:48;;;;;;;4.45;4.25;;;;;;;19.38;47.09;99783.25;4429320;32;20115;-69
2021/05/10 05:19:13;;;;;;;4.50;4.30;;;;;;;19.36;46.64;99779.09;4416231;32;20068;-70
2021/05/10 05:21:39;;;;;;;4.32;4.12;;;;;;;19.28;47.37;99788.72;4421052;32;20084;-69
2021/05/10 05:24:04;;;;;;;4.45;4.25;;;;;;;18.42;47.03;99653.94;4414192;32;20909;-69
2021/05/10 05:26:30;;;;;;;4.40;4.20;;;;;;;19.30;46.84;99801.84;4414435;32;20068;-68
2021/05/10 05:28:55;;;;;;;5.10;4.60;;;;;;;19.31;46.68;99812.34;4413365;32;20099;-69
2021/05/10 05:31:22;;;;;;;4.40;4.20;;;;;;;19.32;46.87;99835.28;4431026;32;20141;-69
2021/05/10 05:33:47;;;;;;;4.40;4.20;;;;;;;19.42;47.43;99834.31;4413141;32;20074;-69
2021/05/10 05:36:12;;;;;;;4.60;4.40;;;;;;;19.35;46.84;99836.78;4408695;32;20370;-70
2021/05/10 05:38:38;;;;;;;4.40;4.20;;;;;;;19.33;47.82;99841.44;4419194;32;20071;-70
2021/05/10 05:41:03;;;;;;;4.53;4.32;;;;;;;19.31;47.36;99848.75;4432543;32;20064;-69
2021/05/10 05:43:29;;;;;;;4.60;4.40;;;;;;;19.32;47.99;99855.72;4431956;32;20095;-70
2021/05/10 05:45:55;;;;;;;4.57;4.37;;;;;;;19.30;48.56;99860.38;4415181;32;20546;-69
2021/05/10 05:48:20;;;;;;;5.60;5.30;;;;;;;19.28;47.83;99868.53;4416985;32;20142;-69
2021/05/10 05:50:45;;;;;;;4.50;4.30;;;;;;;19.26;47.89;99867.84;4427355;32;20083;-69
2021/05/10 05:53:12;;;;;;;4.50;4.30;;;;;;;19.11;48.44;99840.97;4416532;32;20056;-70
2021/05/10 05:55:38;;;;;;;4.78;4.57;;;;;;;19.22;48.12;99847.03;4421834;32;20065;-70
2021/05/10 05:58:04;;;;;;;4.60;4.40;;;;;;;19.23;48.84;99835.41;4418133;32;20086;-68
2021/05/10 06:00:29;;;;;;;4.50;4.30;;;;;;;19.15;48.47;99812.25;4422879;32;20464;-68
2021/05/10 06:02:54;;;;;;;4.43;4.22;;;;;;;19.12;48.90;99816.06;4410768;32;20606;-69
2021/05/10 06:05:20;;;;;;;4.53;4.32;;;;;;;19.15;49.04;99822.06;4423538;32;20152;-69
2021/05/10 06:07:46;;;;;;;4.50;4.30;;;;;;;19.07;48.97;99833.47;4406440;32;20075;-69
2021/05/10 06:10:13;;;;;;;4.60;4.40;;;;;;;19.08;49.53;99849.28;4416928;32;20836;-69
2021/05/10 06:12:39;;;;;;;4.60;4.40;;;;;;;19.02;50.26;99851.72;4425972;32;20079;-69
2021/05/10 06:15:08;;;;;;;4.47;4.28;;;;;;;19.02;49.74;99849.88;4424005;32;20076;-70
2021/05/10 06:17:36;;;;;;;4.50;4.30;;;;;;;19.01;50.26;99856.19;4406530;32;20080;-69
2021/05/10 06:20:06;;;;;;;4.60;4.40;;;;;;;19.01;49.71;99869.50;4411306;32;20084;-70
2021/05/10 06:22:31;;;;;;;4.50;4.30;;;;;;;19.07;50.09;99879.50;4416382;32;20737;-69
2021/05/10 06:24:57;;;;;;;4.50;4.30;;;;;;;19.11;49.66;99880.03;4436340;32;20090;-70
2021/05/10 06:27:22;;;;;;;4.40;4.20;;;;;;;19.17;49.68;99881.25;4410982;32;20074;-70
2021/05/10 06:29:47;;;;;;;4.50;4.30;;;;;;;19.24;50.23;99891.09;4427829;32;20080;-69
2021/05/10 06:32:13;;;;;;;4.70;4.50;;;;;;;19.43;49.13;99892.72;4409989;32;20068;-70
2021/05/10 06:34:38;;;;;;;4.80;4.60;;;;;;;19.61;48.87;99887.31;4423341;32;20080;-70
2021/05/10 06:37:03;;;;;;;4.47;4.28;;;;;;;19.75;48.13;99887.78;4430048;32;20084;-70
2021/05/10 06:39:29;;;;;;;4.80;4.60;;;;;;;20.04;48.47;99890.84;4415029;32;20072;-70
2021/05/10 06:41:54;;;;;;;4.65;4.45;;;;;;;20.09;47.68;99880.56;4416108;32;20757;-70
2021/05/10 06:44:19;;;;;;;4.43;4.22;;;;;;;20.27;46.73;99891.09;4421450;32;20075;-70
2021/05/10 06:46:45;;;;;;;4.60;4.40;;;;;;;20.51;46.76;99897.50;4429328;32;20064;-70
2021/05/10 06:49:10;;;;;;;4.97;4.78;;;;;;;20.76;46.13;99873.56;4412378;32;20083;-71
2021/05/10 06:51:36;;;;;;;4.70;4.50;;;;;;;21.05;45.07;99892.56;4416952;32;20526;-72
2021/05/10 06:54:01;;;;;;;5.00;4.80;;;;;;;21.20;45.69;99898.03;4425963;32;20080;-70
2021/05/10 06:56:26;;;;;;;4.60;4.40;;;;;;;21.18;45.92;99893.87;4426119;32;20065;-70
2021/05/10 06:58:52;;;;;;;4.78;4.57;;;;;;;21.35;44.60;99886.66;4420890;32;20551;-71
2021/05/10 07:01:17;;;;;;;4.70;4.50;;;;;;;21.41;45.41;99891.31;4408775;32;20110;-71
2021/05/10 07:03:42;;;;;;;4.80;4.60;;;;;;;21.42;44.70;99887.66;4413947;32;20064;-70
2021/05/10 07:06:08;;;;;;;4.90;4.70;;;;;;;21.60;44.92;99898.16;4408654;32;20068;-72
2021/05/10 07:08:33;;;;;;;5.35;5.07;;;;;;;21.60;44.65;99884.81;4412153;32;20087;-71
2021/05/10 07:10:58;;;;;;;4.70;4.50;;;;;;;21.80;44.05;99862.03;4431563;32;20076;-70
2021/05/10 07:13:23;;;;;;;4.78;4.57;;;;;;;;;;4418062;32;20086;-71
2021/05/10 07:15:49;;;;;;;5.00;4.80;;;;;;;22.28;43.19;99897.56;4422311;32;20093;-71
2021/05/10 07:18:14;;;;;;;4.97;4.78;;;;;;;22.48;42.36;99916.66;4413872;32;20184;-72
2021/05/10 07:20:42;;;;;;;5.00;4.80;;;;;;;22.56;41.34;99890.88;4412150;32;20191;-72
2021/05/10 07:23:07;;;;;;;5.00;4.60;;;;;;;22.94;40.11;99942.59;4421746;32;20835;-72
2021/05/10 07:25:33;;;;;;;4.90;4.70;;;;;;;22.96;40.13;99953.94;4403615;32;20072;-71
2021/05/10 07:27:59;;;;;;;4.80;4.60;;;;;;;22.77;40.12;99960.63;4419430;32;20180;-72
2021/05/10 07:30:24;;;;;;;5.00;4.70;;;;;;;22.19;41.71;99962.75;4414161;32;21056;-72
2021/05/10 07:32:50;;;;;;;5.00;4.80;;;;;;;21.67;40.89;99925.84;4425743;32;20072;-76
2021/05/10 07:35:15;;;;;;;4.60;4.40;;;;;;;21.31;41.88;99939.56;4423873;32;20367;-71
2021/05/10 07:37:40;;;;;;;4.65;4.45;;;;;;;21.22;43.04;99956.56;4422553;32;20072;-71
2021/05/10 07:40:06;;;;;;;4.85;4.65;;;;;;;20.77;43.82;99947.19;4424960;32;20068;-76
2021/05/10 07:42:32;;;;;;;4.78;4.57;;;;;;;20.98;43.24;99968.91;4410176;32;20129;-73
2021/05/10 07:44:58;;;;;;;4.62;4.43;;;;;;;20.68;43.64;99919.69;4419045;32;20084;-73
2021/05/10 07:47:24;;;;;;;4.60;4.40;;;;;;;20.53;44.58;99943.47;4414742;32;20534;-74
2021/05/10 07:49:49;;;;;;;4.57;4.37;;;;;;;20.82;44.94;100019.56;4424357;32;20307;-77
2021/05/10 07:52:14;;;;;;;4.70;4.50;;;;;;;20.53;44.62;100002.13;4418432;32;20721;-74
2021/05/10 07:54:40;;;;;;;4.70;4.50;;;;;;;20.59;45.03;100027.34;4409989;32;20069;-69
2021/05/10 07:57:07;;;;;;;4.80;4.60;;;;;;;20.58;44.76;100033.63;4426471;32;20076;-69
2021/05/10 07:59:33;;;;;;;4.50;4.30;;;;;;;20.66;44.41;100036.34;4409190;32;20925;-69
2021/05/10 08:01:59;;;;;;;4.57;4.37;;;;;;;20.68;44.94;100029.84;4421338;32;20175;-70
2021/05/10 08:04:25;;;;;;;4.80;4.60;;;;;;;20.33;46.17;100029.03;4415126;32;20069;-69
2021/05/10 08:06:50;;;;;;;4.85;4.65;;;;;;;20.30;46.17;100020.50;4423987;32;20103;-70
2021/05/10 08:09:15;;;;;;;4.70;4.50;;;;;;;20.25;46.80;100007.69;4420373;32;20085;-71
2021/05/10 08:11:41;;;;;;;4.55;4.35;;;;;;;20.20;47.01;100015.31;4428600;32;20083;-69
2021/05/10 08:14:06;;;;;;;4.53;4.32;;;;;;;20.18;46.98;100022.63;4427378;32;21621;-69
2021/05/10 08:16:31;;;;;;;4.55;4.35;;;;;;;20.26;46.33;100009.34;4420937;32;20206;-70
2021/05/10 08:18:57;;;;;;;4.68;4.47;;;;;;;20.35;46.19;100014.69;4414548;32;20085;-71
2021/05/10 08:21:22;;;;;;;4.60;4.40;;;;;;;20.11;46.76;100026.94;4401161;32;20063;-70
2021/05/10 08:23:47;;;;;;;4.60;4.40;;;;;;;19.93;47.94;100045.62;4416038;32;20080;-70
2021/05/10 08:26:13;;;;;;;4.60;4.40;;;;;;;19.64;47.93;100048.53;4399679;32;20083;-75
2021/05/10 08:28:38;;;;;;;4.80;4.60;;;;;;;19.65;48.74;100058.22;4420160;32;20089;-73
2021/05/10 08:31:04;;;;;;;4.60;4.40;;;;;;;19.68;48.17;100055.22;4390901;32;20083;-71
2021/05/10 08:33:30;;;;;;;4.60;4.40;;;;;;;19.55;47.35;100047.66;4395116;32;20441;-72
2021/05/10 08:35:55;;;;;;;4.40;4.20;;;;;;;19.63;47.39;100050.37;4416263;32;20998;-72
2021/05/10 08:38:21;;;;;;;4.47;4.28;;;;;;;19.63;47.48;100065.53;4421130;32;20084;-71
2021/05/10 08:40:47;;;;;;;4.60;4.40;;;;;;;19.67;46.55;100056.25;4413153;32;20069;-71
2021/05/10 08:43:22;;;;;;;4.80;4.60;;;;;;;19.55;47.57;100046.81;4389166;32;20069;-72
2021/05/10 08:45:53;;;;;;;4.62;4.43;;;;;;;19.48;47.42;100034.16;4420404;32;20160;-71
2021/05/10 08:48:18;;;;;;;4.55;4.35;;;;;;;19.65;47.67;100059.03;4415701;32;20212;-72
2021/05/10 08:50:44;;;;;;;4.60;4.40;;;;;;;19.73;46.79;100085.75;4411408;32;20703;-73
2021/05/10 08:53:11;;;;;;;4.70;4.40;;;;;;;20.01;46.74;100098.94;4397691;32;20091;-73
2021/05/10 08:55:37;;;;;;;4.57;4.37;;;;;;;20.45;45.80;100092.72;4426151;32;20634;-72
2021/05/10 08:58:04;;;;;;;4.50;4.30;;;;;;;20.51;45.16;100057.44;4410627;32;20084;-73
2021/05/10 09:00:29;;;;;;;4.60;4.40;;;;;;;21.05;43.82;100102.50;4402716;32;20146;-74
2021/05/10 09:03:09;;;;;;;4.87;4.57;;;;;;;21.00;44.06;100096.78;4421621;32;20079;-74
2021/05/10 09:05:44;;;;;;;4.75;4.55;;;;;;;20.75;43.98;100102.06;4400656;32;20072;-71
2021/05/10 09:08:10;;;;;;;4.60;4.40;;;;;;;19.64;45.08;99976.66;4403583;32;20069;-73
2021/05/10 09:10:35;;;;;;;4.65;4.45;;;;;;;20.33;45.27;100106.31;4394612;32;21033;-72
2021/05/10 09:13:00;;;;;;;4.65;4.45;;;;;;;20.46;46.23;100107.72;4416508;32;20076;-73
2021/05/10 09:15:27;;;;;;;4.47;4.28;;;;;;;20.39;46.29;100120.00;4425817;32;20073;-67
2021/05/10 09:17:53;;;;;;;4.60;4.40;;;;;;;20.43;45.89;100122.19;4415001;32;20203;-67
2021/05/10 09:20:23;;;;;;;4.80;4.60;;;;;;;20.21;44.73;100128.06;4410020;32;20083;-68
2021/05/10 09:22:50;;;;;;;5.35;5.15;;;;;;;20.57;44.10;100125.25;4393849;32;20142;-67
2021/05/10 09:25:15;;;;;;;4.57;4.37;;;;;;;20.89;44.11;100133.44;4407726;32;20903;-67
2021/05/10 09:27:41;;;;;;;4.68;4.47;;;;;;;21.27;43.34;100135.72;4392960;32;20079;-67
2021/05/10 09:30:26;;;;;;;4.70;4.50;;;;;;;21.72;42.77;100131.81;4416588;32;20064;-68
2021/05/10 09:32:52;;;;;;;4.90;4.70;;;;;;;21.85;41.11;100132.16;4401572;32;20192;-68
2021/05/10 09:35:23;;;;;;;4.60;4.40;;;;;;;22.15;41.17;100127.12;4396568;32;20086;-67
2021/05/10 09:37:53;;;;;;;5.00;4.80;;;;;;;22.10;40.90;100138.28;4400752;32;20538;-68
2021/05/10 09:40:18;;;;;;;4.53;4.32;;;;;;;21.62;40.86;100145.31;4402637;32;20212;-67
2021/05/10 09:42:47;;;;;;;4.70;4.50;;;;;;;21.70;41.71;100131.13;4401327;32;20083;-66
2021/05/10 09:45:37;;;;;;;4.82;4.62;;;;;;;21.81;42.57;100140.62;4415167;32;20085;-67
2021/05/10 09:48:13;;;;;;;4.70;4.50;;;;;;;22.01;41.48;100155.34;4414726;32;20087;-66
2021/05/10 09:50:40;;;;;;;4.70;4.50;;;;;;;22.30;41.70;100156.69;4401548;32;20253;-66
2021/05/10 09:53:07;;;;;;;4.70;4.50;;;;;;;22.25;40.60;100162.53;4412038;32;20822;-67
2021/05/10 09:55:51;;;;;;;4.80;4.60;;;;;;;22.15;41.03;100180.56;4409078;32;20076;-65
2021/05/10 09:58:17;;;;;;;4.57;4.37;;;;;;;22.23;41.11;100180.56;4405848;32;20332;-67
2021/05/10 10:00:42;;;;;;;5.00;4.80;;;;;;;21.98;41.33;100179.72;4402381;32;20080;-66
2021/05/10 10:03:22;;;;;;;4.70;4.50;;;;;;;21.97;41.38;100185.22;4416179;32;20928;-67
2021/05/10 10:05:49;;;;;;;4.70;4.50;;;;;;;21.87;42.58;100204.09;4416048;32;20076;-67
2021/05/10 10:08:14;;;;;;;4.50;4.30;;;;;;;21.32;43.30;100181.44;4414304;32;20118;-70
2021/05/10 10:10:39;;;;;;;4.70;4.50;;;;;;;21.21;43.25;100201.25;4416195;32;20064;-67
2021/05/10 10:13:05;;;;;;;4.82;4.53;;;;;;;20.82;44.07;100206.25;4420555;32;20130;-69
2021/05/10 10:15:30;;;;;;;4.60;4.40;;;;;;;20.48;44.01;100164.34;4421207;32;20080;-68
2021/05/10 10:17:57;;;;;;;4.60;4.40;;;;;;;20.76;43.53;100218.38;4410750;32;20083;-69
2021/05/10 10:20:23;;;;;;;4.50;4.30;;;;;;;20.78;43.78;100220.91;4412949;32;20063;-68
2021/05/10 10:22:50;;;;;;;4.68;4.47;;;;;;;20.64;43.87;100219.63;4415661;32;20896;-69
2021/05/10 10:25:15;;;;;;;4.55;4.35;;;;;;;19.84;45.12;100097.16;4397160;32;20080;-69
2021/05/10 10:27:40;;;;;;;4.60;4.40;;;;;;;20.45;44.66;100245.47;4412341;32;20854;-70
2021/05/10 10:30:06;;;;;;;4.80;4.60;;;;;;;20.50;45.49;100229.84;4403178;32;20088;-69
2021/05/10 10:32:32;;;;;;;4.60;4.40;;;;;;;20.56;45.02;100219.56;4400390;32;20069;-70
2021/05/10 10:34:57;;;;;;;4.62;4.43;;;;;;;20.52;45.12;100219.03;4400518;32;20072;-69
2021/05/10 10:37:24;;;;;;;5.12;4.93;;;;;;;20.54;46.11;100233.03;4415589;32;20068;-69
2021/05/10 10:39:50;;;;;;;4.70;4.50;;;;;;;20.67;44.96;100238.84;4415789;32;20086;-67
2021/05/10 10:42:22;;;;;;;4.70;4.50;;;;;;;19.82;48.08;100233.09;4403885;32;20118;-69
2021/05/10 10:44:57;;;;;;;4.75;4.50;;;;;;;19.84;47.88;100231.13;4403366;32;20083;-70
2021/05/10 10:47:46;;;;;;;4.70;4.50;;;;;;;19.87;48.48;100227.34;4414443;32;20202;-69
2021/05/10 10:50:15;;;;;;;4.60;4.40;;;;;;;20.16;49.11;100242.25;4414690;32;20076;-69
2021/05/10 10:52:48;;;;;;;4.62;4.43;;;;;;;20.23;48.62;100245.97;4408712;32;20069;-68
2021/05/10 10:55:24;;;;;;;4.82;4.62;;;;;;;20.60;48.34;100251.09;4420677;32;20146;-70
2021/05/10 10:57:50;;;;;;;4.60;4.40;;;;;;;21.34;46.58;100258.69;4446064;32;20272;-70
2021/05/10 11:00:16;;;;;;;4.55;4.35;;;;;;;21.89;45.27;100255.53;4423056;32;20195;-70
2021/05/10 11:02:51;;;;;;;4.70;4.50;;;;;;;21.86;45.00;100256.69;4418321;32;20069;-71
2021/05/10 11:05:20;;;;;;;4.65;4.45;;;;;;;21.59;45.58;100259.62;4416147;32;20902;-72
2021/05/10 11:08:07;;;;;;;4.60;4.40;;;;;;;21.57;45.70;100256.28;4412126;32;20073;-72
2021/05/10 11:10:47;;;;;;;4.90;4.70;;;;;;;21.61;45.45;100260.28;4413757;32;20085;-70
2021/05/10 11:15:54;;;;;;;5.10;4.90;;;;;;;22.32;44.05;100261.59;4415317;32;20148;-73
2021/05/10 11:18:44;;;;;;;4.70;4.50;;;;;;;22.70;41.27;100269.94;4411870;32;20627;-71
2021/05/10 11:21:30;;;;;;;4.80;4.60;;;;;;;22.72;41.11;100275.13;4429149;32;20487;-68
2021/05/10 11:23:59;;;;;;;4.87;4.62;;;;;;;22.48;40.47;100272.28;4425690;32;20130;-71
2021/05/10 11:26:43;;;;;;;4.85;4.65;;;;;;;22.33;40.15;100257.09;4404931;32;20130;-68
2021/05/10 11:29:23;;;;;;;4.80;4.60;;;;;;;22.45;40.44;100263.75;4431013;32;20069;-67
2021/05/10 11:31:49;;;;;;;4.70;4.50;;;;;;;22.47;39.93;100283.16;4426838;32;20071;-69
2021/05/10 11:34:17;;;;;;;4.62;4.43;;;;;;;22.32;39.51;100274.97;4408061;32;20087;-69
2021/05/10 11:36:47;;;;;;;4.80;4.60;;;;;;;22.08;40.50;100268.56;4415092;32;20795;-72
2021/05/10 11:39:16;;;;;;;4.70;4.50;;;;;;;21.91;41.62;100280.25;4396980;32;20068;-73
2021/05/10 11:41:45;;;;;;;4.50;4.30;;;;;;;22.09;40.76;100270.25;4403924;32;20072;-72